sensor_id;sensor_type;location;lat;lon;timestamp;P1;durP1;ratioP1;P2;durP2;ratioP2
18435;SDS011;9346;52.006;4.720;2023-02-15T00:00:53;60.63;;;27.13;;
18435;SDS011;9346;52.006;4.720;2023-02-15T00:03:22;49.80;;;25.10;;
18435;SDS011;9346;52.006;4.720;2023-02-15T00:05:51;68.77;;;27.50;;
18435;SDS011;9346;52.006;4.720;2023-02-15T00:08:18;58.07;;;28.07;;
18435;SDS011;9346;52.006;4.720;2023-02-15T00:10:45;48.37;;;25.13;;
18435;SDS011;9346;52.006;4.720;2023-02-15T00:13:12;62.03;;;26.90;;
18435;SDS011;9346;52.006;4.720;2023-02-15T00:15:39;55.20;;;24.90;;
18435;SDS011;9346;52.006;4.720;2023-02-15T00:18:06;46.70;;;23.60;;
18435;SDS011;9346;52.006;4.720;2023-02-15T00:20:34;45.50;;;21.87;;
18435;SDS011;9346;52.006;4.720;2023-02-15T00:23:03;40.57;;;21.53;;
18435;SDS011;9346;52.006;4.720;2023-02-15T00:25:29;50.43;;;23.83;;
18435;SDS011;9346;52.006;4.720;2023-02-15T00:27:56;47.57;;;23.30;;
18435;SDS011;9346;52.006;4.720;2023-02-15T00:30:23;54.80;;;24.67;;
18435;SDS011;9346;52.006;4.720;2023-02-15T00:32:50;40.67;;;21.40;;
18435;SDS011;9346;52.006;4.720;2023-02-15T00:35:17;54.30;;;24.23;;
18435;SDS011;9346;52.006;4.720;2023-02-15T00:37:44;40.63;;;22.23;;
18435;SDS011;9346;52.006;4.720;2023-02-15T00:42:42;42.60;;;20.10;;
18435;SDS011;9346;52.006;4.720;2023-02-15T00:45:09;50.17;;;22.10;;
18435;SDS011;9346;52.006;4.720;2023-02-15T00:47:36;40.87;;;21.57;;
18435;SDS011;9346;52.006;4.720;2023-02-15T00:50:04;49.90;;;22.40;;
18435;SDS011;9346;52.006;4.720;2023-02-15T00:52:32;45.53;;;21.03;;
18435;SDS011;9346;52.006;4.720;2023-02-15T00:54:59;41.70;;;23.20;;
18435;SDS011;9346;52.006;4.720;2023-02-15T00:57:27;52.90;;;23.70;;
18435;SDS011;9346;52.006;4.720;2023-02-15T00:59:54;45.10;;;22.40;;
18435;SDS011;9346;52.006;4.720;2023-02-15T01:02:22;41.80;;;21.57;;
18435;SDS011;9346;52.006;4.720;2023-02-15T01:04:49;47.40;;;23.27;;
18435;SDS011;9346;52.006;4.720;2023-02-15T01:07:16;45.60;;;22.57;;
18435;SDS011;9346;52.006;4.720;2023-02-15T01:09:43;43.73;;;23.13;;
18435;SDS011;9346;52.006;4.720;2023-02-15T01:12:10;44.17;;;22.60;;
18435;SDS011;9346;52.006;4.720;2023-02-15T01:14:38;57.60;;;23.90;;
18435;SDS011;9346;52.006;4.720;2023-02-15T01:17:05;50.57;;;22.87;;
18435;SDS011;9346;52.006;4.720;2023-02-15T01:19:32;43.83;;;21.23;;
18435;SDS011;9346;52.006;4.720;2023-02-15T01:21:59;48.10;;;21.43;;
18435;SDS011;9346;52.006;4.720;2023-02-15T01:24:26;55.90;;;22.23;;
18435;SDS011;9346;52.006;4.720;2023-02-15T01:26:53;41.70;;;21.20;;
18435;SDS011;9346;52.006;4.720;2023-02-15T01:29:20;45.67;;;21.27;;
18435;SDS011;9346;52.006;4.720;2023-02-15T01:31:49;49.20;;;22.80;;
18435;SDS011;9346;52.006;4.720;2023-02-15T01:34:16;44.87;;;20.73;;
18435;SDS011;9346;52.006;4.720;2023-02-15T01:36:43;38.90;;;18.77;;
18435;SDS011;9346;52.006;4.720;2023-02-15T01:39:10;35.57;;;16.67;;
18435;SDS011;9346;52.006;4.720;2023-02-15T01:41:37;39.17;;;16.33;;
18435;SDS011;9346;52.006;4.720;2023-02-15T01:47:07;34.17;;;17.00;;
18435;SDS011;9346;52.006;4.720;2023-02-15T01:49:37;35.70;;;18.20;;
18435;SDS011;9346;52.006;4.720;2023-02-15T01:52:07;34.07;;;16.43;;
18435;SDS011;9346;52.006;4.720;2023-02-15T01:54:36;28.50;;;16.90;;
18435;SDS011;9346;52.006;4.720;2023-02-15T01:57:08;30.67;;;16.97;;
18435;SDS011;9346;52.006;4.720;2023-02-15T01:59:39;36.40;;;16.43;;
18435;SDS011;9346;52.006;4.720;2023-02-15T02:02:11;43.40;;;16.80;;
18435;SDS011;9346;52.006;4.720;2023-02-15T02:04:41;36.13;;;17.27;;
18435;SDS011;9346;52.006;4.720;2023-02-15T02:07:12;32.53;;;16.60;;
18435;SDS011;9346;52.006;4.720;2023-02-15T02:09:42;34.80;;;16.97;;
18435;SDS011;9346;52.006;4.720;2023-02-15T02:12:10;32.10;;;16.10;;
18435;SDS011;9346;52.006;4.720;2023-02-15T02:14:38;23.47;;;14.97;;
18435;SDS011;9346;52.006;4.720;2023-02-15T02:17:09;28.47;;;15.83;;
18435;SDS011;9346;52.006;4.720;2023-02-15T02:19:54;28.10;;;14.13;;
18435;SDS011;9346;52.006;4.720;2023-02-15T02:31:43;33.67;;;14.93;;
18435;SDS011;9346;52.006;4.720;2023-02-15T02:34:23;28.47;;;16.30;;
18435;SDS011;9346;52.006;4.720;2023-02-15T02:36:56;34.23;;;17.97;;
18435;SDS011;9346;52.006;4.720;2023-02-15T02:39:30;32.70;;;17.07;;
18435;SDS011;9346;52.006;4.720;2023-02-15T02:42:05;33.50;;;16.93;;
18435;SDS011;9346;52.006;4.720;2023-02-15T02:44:41;38.33;;;16.13;;
18435;SDS011;9346;52.006;4.720;2023-02-15T02:47:12;34.47;;;16.37;;
18435;SDS011;9346;52.006;4.720;2023-02-15T02:49:45;43.40;;;19.37;;
18435;SDS011;9346;52.006;4.720;2023-02-15T02:55:03;37.40;;;16.87;;
18435;SDS011;9346;52.006;4.720;2023-02-15T02:57:34;39.77;;;19.23;;
18435;SDS011;9346;52.006;4.720;2023-02-15T03:00:08;37.83;;;17.67;;
18435;SDS011;9346;52.006;4.720;2023-02-15T03:02:36;48.57;;;19.53;;
18435;SDS011;9346;52.006;4.720;2023-02-15T03:05:11;47.20;;;19.70;;
18435;SDS011;9346;52.006;4.720;2023-02-15T03:07:42;31.60;;;18.50;;
18435;SDS011;9346;52.006;4.720;2023-02-15T03:10:14;39.03;;;18.70;;
18435;SDS011;9346;52.006;4.720;2023-02-15T03:12:42;40.33;;;17.60;;
18435;SDS011;9346;52.006;4.720;2023-02-15T03:15:09;34.33;;;17.73;;
18435;SDS011;9346;52.006;4.720;2023-02-15T03:17:42;39.70;;;18.57;;
18435;SDS011;9346;52.006;4.720;2023-02-15T03:20:14;32.27;;;15.93;;
18435;SDS011;9346;52.006;4.720;2023-02-15T03:22:47;38.33;;;18.17;;
18435;SDS011;9346;52.006;4.720;2023-02-15T03:25:18;36.60;;;19.23;;
18435;SDS011;9346;52.006;4.720;2023-02-15T03:27:48;42.77;;;19.57;;
18435;SDS011;9346;52.006;4.720;2023-02-15T03:30:20;35.43;;;16.60;;
18435;SDS011;9346;52.006;4.720;2023-02-15T03:32:49;47.50;;;20.57;;
18435;SDS011;9346;52.006;4.720;2023-02-15T03:35:24;40.60;;;18.57;;
18435;SDS011;9346;52.006;4.720;2023-02-15T03:37:57;40.37;;;19.73;;
18435;SDS011;9346;52.006;4.720;2023-02-15T03:40:28;46.87;;;20.17;;
18435;SDS011;9346;52.006;4.720;2023-02-15T03:43:17;43.20;;;19.87;;
18435;SDS011;9346;52.006;4.720;2023-02-15T03:45:48;45.90;;;19.17;;
18435;SDS011;9346;52.006;4.720;2023-02-15T03:48:22;39.90;;;20.10;;
18435;SDS011;9346;52.006;4.720;2023-02-15T03:50:54;46.63;;;18.33;;
18435;SDS011;9346;52.006;4.720;2023-02-15T03:53:59;40.10;;;19.10;;
18435;SDS011;9346;52.006;4.720;2023-02-15T03:56:28;50.67;;;18.87;;
18435;SDS011;9346;52.006;4.720;2023-02-15T03:58:55;36.03;;;19.23;;
18435;SDS011;9346;52.006;4.720;2023-02-15T04:01:39;40.80;;;19.00;;
18435;SDS011;9346;52.006;4.720;2023-02-15T04:04:25;39.37;;;19.00;;
18435;SDS011;9346;52.006;4.720;2023-02-15T04:06:58;43.87;;;20.40;;
18435;SDS011;9346;52.006;4.720;2023-02-15T04:09:25;41.10;;;21.30;;
18435;SDS011;9346;52.006;4.720;2023-02-15T04:12:09;49.93;;;19.77;;
18435;SDS011;9346;52.006;4.720;2023-02-15T04:14:36;41.67;;;18.90;;
18435;SDS011;9346;52.006;4.720;2023-02-15T04:17:20;52.20;;;19.93;;
18435;SDS011;9346;52.006;4.720;2023-02-15T04:19:47;33.63;;;16.73;;
18435;SDS011;9346;52.006;4.720;2023-02-15T04:22:34;41.20;;;16.20;;
18435;SDS011;9346;52.006;4.720;2023-02-15T04:25:18;34.57;;;16.43;;
18435;SDS011;9346;52.006;4.720;2023-02-15T04:27:47;30.67;;;15.13;;
18435;SDS011;9346;52.006;4.720;2023-02-15T04:30:16;32.53;;;16.70;;
18435;SDS011;9346;52.006;4.720;2023-02-15T04:32:45;32.73;;;15.70;;
18435;SDS011;9346;52.006;4.720;2023-02-15T04:35:12;33.17;;;15.97;;
18435;SDS011;9346;52.006;4.720;2023-02-15T04:37:42;33.23;;;15.17;;
18435;SDS011;9346;52.006;4.720;2023-02-15T04:40:10;25.83;;;16.27;;
18435;SDS011;9346;52.006;4.720;2023-02-15T04:42:39;41.67;;;14.70;;
18435;SDS011;9346;52.006;4.720;2023-02-15T04:45:06;39.53;;;14.43;;
18435;SDS011;9346;52.006;4.720;2023-02-15T04:47:33;28.10;;;14.47;;
18435;SDS011;9346;52.006;4.720;2023-02-15T04:50:00;46.63;;;14.57;;
18435;SDS011;9346;52.006;4.720;2023-02-15T04:52:27;38.27;;;13.73;;
18435;SDS011;9346;52.006;4.720;2023-02-15T04:54:56;51.47;;;13.80;;
18435;SDS011;9346;52.006;4.720;2023-02-15T04:57:23;29.80;;;12.53;;
18435;SDS011;9346;52.006;4.720;2023-02-15T04:59:51;61.13;;;12.70;;
18435;SDS011;9346;52.006;4.720;2023-02-15T05:02:17;26.43;;;13.13;;
18435;SDS011;9346;52.006;4.720;2023-02-15T05:04:45;21.30;;;11.80;;
18435;SDS011;9346;52.006;4.720;2023-02-15T05:07:12;22.47;;;12.80;;
18435;SDS011;9346;52.006;4.720;2023-02-15T05:09:39;29.57;;;12.23;;
18435;SDS011;9346;52.006;4.720;2023-02-15T05:12:08;30.70;;;12.00;;
18435;SDS011;9346;52.006;4.720;2023-02-15T05:14:35;47.37;;;11.93;;
18435;SDS011;9346;52.006;4.720;2023-02-15T05:17:02;33.00;;;11.80;;
18435;SDS011;9346;52.006;4.720;2023-02-15T05:19:30;23.73;;;12.00;;
18435;SDS011;9346;52.006;4.720;2023-02-15T05:21:57;19.80;;;12.07;;
18435;SDS011;9346;52.006;4.720;2023-02-15T05:24:24;27.67;;;12.30;;
18435;SDS011;9346;52.006;4.720;2023-02-15T05:27:12;28.67;;;12.67;;
18435;SDS011;9346;52.006;4.720;2023-02-15T05:29:57;29.23;;;11.17;;
18435;SDS011;9346;52.006;4.720;2023-02-15T05:32:24;21.57;;;11.83;;
18435;SDS011;9346;52.006;4.720;2023-02-15T05:34:50;25.90;;;13.03;;
18435;SDS011;9346;52.006;4.720;2023-02-15T05:37:17;20.20;;;12.50;;
18435;SDS011;9346;52.006;4.720;2023-02-15T05:39:44;17.80;;;11.47;;
18435;SDS011;9346;52.006;4.720;2023-02-15T05:42:13;21.07;;;11.77;;
18435;SDS011;9346;52.006;4.720;2023-02-15T05:44:40;23.57;;;13.00;;
18435;SDS011;9346;52.006;4.720;2023-02-15T05:47:07;27.70;;;14.37;;
18435;SDS011;9346;52.006;4.720;2023-02-15T05:49:34;19.90;;;12.30;;
18435;SDS011;9346;52.006;4.720;2023-02-15T05:52:01;20.70;;;13.67;;
18435;SDS011;9346;52.006;4.720;2023-02-15T05:54:28;28.57;;;12.90;;
18435;SDS011;9346;52.006;4.720;2023-02-15T05:56:55;25.50;;;13.80;;
18435;SDS011;9346;52.006;4.720;2023-02-15T05:59:24;32.03;;;14.60;;
18435;SDS011;9346;52.006;4.720;2023-02-15T06:01:52;33.33;;;16.10;;
18435;SDS011;9346;52.006;4.720;2023-02-15T06:04:19;24.07;;;14.03;;
18435;SDS011;9346;52.006;4.720;2023-02-15T06:06:45;32.50;;;16.40;;
18435;SDS011;9346;52.006;4.720;2023-02-15T06:09:12;32.63;;;15.43;;
18435;SDS011;9346;52.006;4.720;2023-02-15T06:11:43;29.30;;;13.63;;
18435;SDS011;9346;52.006;4.720;2023-02-15T06:14:09;29.83;;;15.73;;
18435;SDS011;9346;52.006;4.720;2023-02-15T06:16:38;45.53;;;15.70;;
18435;SDS011;9346;52.006;4.720;2023-02-15T06:19:05;36.83;;;13.50;;
18435;SDS011;9346;52.006;4.720;2023-02-15T06:21:32;24.73;;;13.63;;
18435;SDS011;9346;52.006;4.720;2023-02-15T06:23:59;26.70;;;12.63;;
18435;SDS011;9346;52.006;4.720;2023-02-15T06:26:26;31.73;;;13.00;;
18435;SDS011;9346;52.006;4.720;2023-02-15T06:28:52;46.80;;;12.67;;
18435;SDS011;9346;52.006;4.720;2023-02-15T06:31:19;19.70;;;11.90;;
18435;SDS011;9346;52.006;4.720;2023-02-15T06:33:48;25.97;;;14.47;;
18435;SDS011;9346;52.006;4.720;2023-02-15T06:36:15;25.70;;;12.27;;
18435;SDS011;9346;52.006;4.720;2023-02-15T06:38:42;24.30;;;12.90;;
18435;SDS011;9346;52.006;4.720;2023-02-15T06:41:09;24.53;;;12.77;;
18435;SDS011;9346;52.006;4.720;2023-02-15T06:43:36;32.27;;;12.80;;
18435;SDS011;9346;52.006;4.720;2023-02-15T06:46:03;33.80;;;14.03;;
18435;SDS011;9346;52.006;4.720;2023-02-15T06:48:30;31.43;;;13.13;;
18435;SDS011;9346;52.006;4.720;2023-02-15T06:50:59;29.30;;;13.43;;
18435;SDS011;9346;52.006;4.720;2023-02-15T06:53:25;25.83;;;12.87;;
18435;SDS011;9346;52.006;4.720;2023-02-15T06:55:53;27.17;;;14.07;;
18435;SDS011;9346;52.006;4.720;2023-02-15T06:58:27;34.47;;;13.23;;
18435;SDS011;9346;52.006;4.720;2023-02-15T07:00:54;37.37;;;13.73;;
18435;SDS011;9346;52.006;4.720;2023-02-15T07:03:21;23.63;;;13.00;;
18435;SDS011;9346;52.006;4.720;2023-02-15T07:05:48;35.47;;;13.37;;
18435;SDS011;9346;52.006;4.720;2023-02-15T07:08:16;37.30;;;13.27;;
18435;SDS011;9346;52.006;4.720;2023-02-15T07:10:45;43.87;;;13.47;;
18435;SDS011;9346;52.006;4.720;2023-02-15T07:13:12;28.47;;;13.67;;
18435;SDS011;9346;52.006;4.720;2023-02-15T07:15:37;31.00;;;14.43;;
18435;SDS011;9346;52.006;4.720;2023-02-15T07:18:04;27.33;;;13.47;;
18435;SDS011;9346;52.006;4.720;2023-02-15T07:20:31;25.33;;;12.90;;
18435;SDS011;9346;52.006;4.720;2023-02-15T07:23:00;39.77;;;15.07;;
18435;SDS011;9346;52.006;4.720;2023-02-15T07:25:29;34.33;;;15.03;;
18435;SDS011;9346;52.006;4.720;2023-02-15T07:27:56;27.50;;;14.00;;
18435;SDS011;9346;52.006;4.720;2023-02-15T07:30:23;27.60;;;13.83;;
18435;SDS011;9346;52.006;4.720;2023-02-15T07:32:54;29.40;;;12.53;;
18435;SDS011;9346;52.006;4.720;2023-02-15T07:35:38;24.70;;;14.27;;
18435;SDS011;9346;52.006;4.720;2023-02-15T07:38:13;28.37;;;14.40;;
18435;SDS011;9346;52.006;4.720;2023-02-15T07:40:42;27.70;;;15.17;;
18435;SDS011;9346;52.006;4.720;2023-02-15T07:43:09;30.33;;;14.50;;
18435;SDS011;9346;52.006;4.720;2023-02-15T07:45:36;31.43;;;15.40;;
18435;SDS011;9346;52.006;4.720;2023-02-15T07:48:03;33.07;;;15.37;;
18435;SDS011;9346;52.006;4.720;2023-02-15T07:50:33;28.60;;;14.73;;
18435;SDS011;9346;52.006;4.720;2023-02-15T07:53:01;44.97;;;16.63;;
18435;SDS011;9346;52.006;4.720;2023-02-15T07:55:29;27.93;;;15.30;;
18435;SDS011;9346;52.006;4.720;2023-02-15T07:57:58;31.53;;;15.97;;
18435;SDS011;9346;52.006;4.720;2023-02-15T08:00:25;33.50;;;16.77;;
18435;SDS011;9346;52.006;4.720;2023-02-15T08:02:55;46.10;;;16.67;;
18435;SDS011;9346;52.006;4.720;2023-02-15T08:05:40;38.47;;;16.97;;
18435;SDS011;9346;52.006;4.720;2023-02-15T08:08:08;34.03;;;16.50;;
18435;SDS011;9346;52.006;4.720;2023-02-15T08:10:56;41.97;;;18.50;;
18435;SDS011;9346;52.006;4.720;2023-02-15T08:13:43;39.83;;;17.73;;
18435;SDS011;9346;52.006;4.720;2023-02-15T08:16:21;39.13;;;18.37;;
18435;SDS011;9346;52.006;4.720;2023-02-15T08:18:49;37.87;;;19.17;;
18435;SDS011;9346;52.006;4.720;2023-02-15T08:21:17;37.43;;;20.23;;
18435;SDS011;9346;52.006;4.720;2023-02-15T08:23:44;46.77;;;20.53;;
18435;SDS011;9346;52.006;4.720;2023-02-15T08:26:11;43.07;;;21.47;;
18435;SDS011;9346;52.006;4.720;2023-02-15T08:28:38;47.33;;;21.63;;
18435;SDS011;9346;52.006;4.720;2023-02-15T08:31:08;53.03;;;25.27;;
18435;SDS011;9346;52.006;4.720;2023-02-15T08:33:37;50.37;;;25.60;;
18435;SDS011;9346;52.006;4.720;2023-02-15T08:36:06;46.43;;;21.43;;
18435;SDS011;9346;52.006;4.720;2023-02-15T08:38:34;45.07;;;24.17;;
18435;SDS011;9346;52.006;4.720;2023-02-15T08:41:08;45.40;;;23.07;;
18435;SDS011;9346;52.006;4.720;2023-02-15T08:43:37;49.90;;;24.03;;
18435;SDS011;9346;52.006;4.720;2023-02-15T08:46:04;57.73;;;25.43;;
18435;SDS011;9346;52.006;4.720;2023-02-15T08:48:33;58.03;;;26.30;;
18435;SDS011;9346;52.006;4.720;2023-02-15T08:51:04;58.57;;;23.27;;
18435;SDS011;9346;52.006;4.720;2023-02-15T08:53:33;58.30;;;22.70;;
18435;SDS011;9346;52.006;4.720;2023-02-15T08:56:00;46.50;;;24.00;;
18435;SDS011;9346;52.006;4.720;2023-02-15T08:58:28;52.23;;;24.43;;
18435;SDS011;9346;52.006;4.720;2023-02-15T09:00:55;57.27;;;25.53;;
18435;SDS011;9346;52.006;4.720;2023-02-15T09:03:22;53.77;;;26.37;;
18435;SDS011;9346;52.006;4.720;2023-02-15T09:05:53;48.70;;;24.90;;
18435;SDS011;9346;52.006;4.720;2023-02-15T09:08:23;53.30;;;24.70;;
18435;SDS011;9346;52.006;4.720;2023-02-15T09:10:51;47.63;;;22.87;;
18435;SDS011;9346;52.006;4.720;2023-02-15T09:13:17;51.43;;;26.40;;
18435;SDS011;9346;52.006;4.720;2023-02-15T09:15:45;59.77;;;25.43;;
18435;SDS011;9346;52.006;4.720;2023-02-15T09:18:12;62.63;;;28.23;;
18435;SDS011;9346;52.006;4.720;2023-02-15T09:20:42;52.63;;;26.27;;
18435;SDS011;9346;52.006;4.720;2023-02-15T09:23:11;52.63;;;27.53;;
18435;SDS011;9346;52.006;4.720;2023-02-15T09:25:40;58.73;;;28.63;;
18435;SDS011;9346;52.006;4.720;2023-02-15T09:28:08;55.67;;;28.07;;
18435;SDS011;9346;52.006;4.720;2023-02-15T09:30:35;61.03;;;27.93;;
18435;SDS011;9346;52.006;4.720;2023-02-15T09:33:02;63.80;;;29.43;;
18435;SDS011;9346;52.006;4.720;2023-02-15T09:35:29;58.27;;;28.00;;
18435;SDS011;9346;52.006;4.720;2023-02-15T09:37:56;72.03;;;28.83;;
18435;SDS011;9346;52.006;4.720;2023-02-15T09:40:25;64.93;;;29.13;;
18435;SDS011;9346;52.006;4.720;2023-02-15T09:42:59;65.83;;;30.47;;
18435;SDS011;9346;52.006;4.720;2023-02-15T09:45:39;62.00;;;29.70;;
18435;SDS011;9346;52.006;4.720;2023-02-15T09:48:26;71.70;;;30.87;;
18435;SDS011;9346;52.006;4.720;2023-02-15T09:51:12;69.93;;;30.27;;
18435;SDS011;9346;52.006;4.720;2023-02-15T09:53:57;75.00;;;27.50;;
18435;SDS011;9346;52.006;4.720;2023-02-15T09:56:39;61.17;;;30.50;;
18435;SDS011;9346;52.006;4.720;2023-02-15T09:59:15;57.57;;;28.80;;
18435;SDS011;9346;52.006;4.720;2023-02-15T10:01:51;78.43;;;33.37;;
18435;SDS011;9346;52.006;4.720;2023-02-15T10:04:39;64.53;;;30.10;;
18435;SDS011;9346;52.006;4.720;2023-02-15T10:07:19;67.60;;;30.13;;
18435;SDS011;9346;52.006;4.720;2023-02-15T10:10:03;69.10;;;31.97;;
18435;SDS011;9346;52.006;4.720;2023-02-15T10:12:46;66.67;;;32.10;;
18435;SDS011;9346;52.006;4.720;2023-02-15T10:15:30;60.90;;;30.37;;
18435;SDS011;9346;52.006;4.720;2023-02-15T10:18:21;72.37;;;31.77;;
18435;SDS011;9346;52.006;4.720;2023-02-15T10:21:01;72.37;;;32.50;;
18435;SDS011;9346;52.006;4.720;2023-02-15T10:23:45;65.37;;;32.43;;
18435;SDS011;9346;52.006;4.720;2023-02-15T10:26:26;79.27;;;33.77;;
18435;SDS011;9346;52.006;4.720;2023-02-15T10:29:00;59.93;;;32.13;;
18435;SDS011;9346;52.006;4.720;2023-02-15T10:31:34;68.43;;;31.47;;
18435;SDS011;9346;52.006;4.720;2023-02-15T10:34:15;69.00;;;33.37;;
18435;SDS011;9346;52.006;4.720;2023-02-15T10:36:56;71.50;;;34.03;;
18435;SDS011;9346;52.006;4.720;2023-02-15T10:39:42;71.17;;;31.90;;
18435;SDS011;9346;52.006;4.720;2023-02-15T10:42:22;73.60;;;35.00;;
18435;SDS011;9346;52.006;4.720;2023-02-15T10:45:06;86.77;;;37.83;;
18435;SDS011;9346;52.006;4.720;2023-02-15T10:47:55;64.13;;;33.63;;
18435;SDS011;9346;52.006;4.720;2023-02-15T10:50:40;84.33;;;35.60;;
18435;SDS011;9346;52.006;4.720;2023-02-15T10:53:17;70.43;;;34.77;;
18435;SDS011;9346;52.006;4.720;2023-02-15T10:55:56;80.87;;;36.07;;
18435;SDS011;9346;52.006;4.720;2023-02-15T10:58:38;71.53;;;33.80;;
18435;SDS011;9346;52.006;4.720;2023-02-15T11:01:21;62.60;;;30.67;;
18435;SDS011;9346;52.006;4.720;2023-02-15T11:03:56;78.80;;;35.07;;
18435;SDS011;9346;52.006;4.720;2023-02-15T11:06:42;84.00;;;36.40;;
18435;SDS011;9346;52.006;4.720;2023-02-15T11:09:16;82.23;;;35.90;;
18435;SDS011;9346;52.006;4.720;2023-02-15T11:11:48;68.87;;;34.67;;
18435;SDS011;9346;52.006;4.720;2023-02-15T11:14:17;70.47;;;32.73;;
18435;SDS011;9346;52.006;4.720;2023-02-15T11:16:52;73.40;;;32.73;;
18435;SDS011;9346;52.006;4.720;2023-02-15T11:19:24;71.53;;;33.63;;
18435;SDS011;9346;52.006;4.720;2023-02-15T11:21:57;65.17;;;31.57;;
18435;SDS011;9346;52.006;4.720;2023-02-15T11:24:28;72.73;;;32.43;;
18435;SDS011;9346;52.006;4.720;2023-02-15T11:27:00;71.07;;;32.13;;
18435;SDS011;9346;52.006;4.720;2023-02-15T11:29:31;77.10;;;32.07;;
18435;SDS011;9346;52.006;4.720;2023-02-15T11:32:12;72.60;;;32.33;;
18435;SDS011;9346;52.006;4.720;2023-02-15T11:34:46;72.43;;;30.80;;
18435;SDS011;9346;52.006;4.720;2023-02-15T11:37:18;54.87;;;28.67;;
18435;SDS011;9346;52.006;4.720;2023-02-15T11:39:51;54.00;;;28.70;;
18435;SDS011;9346;52.006;4.720;2023-02-15T11:42:20;62.23;;;30.67;;
18435;SDS011;9346;52.006;4.720;2023-02-15T11:44:55;61.40;;;29.93;;
18435;SDS011;9346;52.006;4.720;2023-02-15T11:47:29;60.93;;;29.70;;
18435;SDS011;9346;52.006;4.720;2023-02-15T11:49:56;58.13;;;28.03;;
18435;SDS011;9346;52.006;4.720;2023-02-15T11:52:24;57.17;;;27.47;;
18435;SDS011;9346;52.006;4.720;2023-02-15T11:54:51;60.53;;;27.87;;
18435;SDS011;9346;52.006;4.720;2023-02-15T11:57:19;54.10;;;26.93;;
18435;SDS011;9346;52.006;4.720;2023-02-15T11:59:55;52.57;;;26.17;;
18435;SDS011;9346;52.006;4.720;2023-02-15T12:02:26;51.57;;;24.87;;
18435;SDS011;9346;52.006;4.720;2023-02-15T12:04:58;46.70;;;25.63;;
18435;SDS011;9346;52.006;4.720;2023-02-15T12:07:30;55.53;;;25.13;;
18435;SDS011;9346;52.006;4.720;2023-02-15T12:10:03;48.77;;;26.20;;
18435;SDS011;9346;52.006;4.720;2023-02-15T12:12:36;53.27;;;28.40;;
18435;SDS011;9346;52.006;4.720;2023-02-15T12:15:04;57.83;;;28.13;;
18435;SDS011;9346;52.006;4.720;2023-02-15T12:17:34;52.07;;;25.97;;
18435;SDS011;9346;52.006;4.720;2023-02-15T12:20:20;53.40;;;25.03;;
18435;SDS011;9346;52.006;4.720;2023-02-15T12:22:51;53.30;;;26.43;;
18435;SDS011;9346;52.006;4.720;2023-02-15T12:25:21;60.83;;;27.40;;
18435;SDS011;9346;52.006;4.720;2023-02-15T12:27:54;44.73;;;23.10;;
18435;SDS011;9346;52.006;4.720;2023-02-15T12:30:23;50.40;;;24.93;;
18435;SDS011;9346;52.006;4.720;2023-02-15T12:32:57;49.43;;;24.33;;
18435;SDS011;9346;52.006;4.720;2023-02-15T12:35:33;50.43;;;24.50;;
18435;SDS011;9346;52.006;4.720;2023-02-15T12:38:03;53.40;;;25.13;;
18435;SDS011;9346;52.006;4.720;2023-02-15T12:40:32;46.97;;;24.40;;
18435;SDS011;9346;52.006;4.720;2023-02-15T12:43:01;47.57;;;24.17;;
18435;SDS011;9346;52.006;4.720;2023-02-15T12:45:34;44.73;;;23.47;;
18435;SDS011;9346;52.006;4.720;2023-02-15T12:48:10;56.90;;;25.33;;
18435;SDS011;9346;52.006;4.720;2023-02-15T12:50:44;40.87;;;24.33;;
18435;SDS011;9346;52.006;4.720;2023-02-15T12:53:13;50.60;;;25.03;;
18435;SDS011;9346;52.006;4.720;2023-02-15T12:55:52;56.00;;;24.20;;
18435;SDS011;9346;52.006;4.720;2023-02-15T12:58:21;42.50;;;23.67;;
18435;SDS011;9346;52.006;4.720;2023-02-15T13:01:01;45.70;;;24.53;;
18435;SDS011;9346;52.006;4.720;2023-02-15T13:03:32;52.83;;;23.90;;
18435;SDS011;9346;52.006;4.720;2023-02-15T13:06:01;52.47;;;25.07;;
18435;SDS011;9346;52.006;4.720;2023-02-15T13:08:33;52.53;;;24.17;;
18435;SDS011;9346;52.006;4.720;2023-02-15T13:11:03;42.13;;;22.73;;
18435;SDS011;9346;52.006;4.720;2023-02-15T13:13:35;48.63;;;25.77;;
18435;SDS011;9346;52.006;4.720;2023-02-15T13:16:12;50.33;;;24.63;;
18435;SDS011;9346;52.006;4.720;2023-02-15T13:18:42;42.53;;;22.87;;
18435;SDS011;9346;52.006;4.720;2023-02-15T13:21:14;51.17;;;24.37;;
18435;SDS011;9346;52.006;4.720;2023-02-15T13:23:45;52.90;;;24.50;;
18435;SDS011;9346;52.006;4.720;2023-02-15T13:26:18;50.67;;;24.97;;
18435;SDS011;9346;52.006;4.720;2023-02-15T13:28:48;49.57;;;24.83;;
18435;SDS011;9346;52.006;4.720;2023-02-15T13:31:20;42.87;;;23.17;;
18435;SDS011;9346;52.006;4.720;2023-02-15T13:33:50;53.17;;;25.47;;
18435;SDS011;9346;52.006;4.720;2023-02-15T13:36:23;44.33;;;23.10;;
18435;SDS011;9346;52.006;4.720;2023-02-15T13:39:08;48.43;;;21.57;;
18435;SDS011;9346;52.006;4.720;2023-02-15T13:41:47;47.83;;;21.80;;
18435;SDS011;9346;52.006;4.720;2023-02-15T13:44:25;40.73;;;18.77;;
18435;SDS011;9346;52.006;4.720;2023-02-15T13:47:05;43.57;;;20.47;;
18435;SDS011;9346;52.006;4.720;2023-02-15T13:49:47;37.30;;;20.20;;
18435;SDS011;9346;52.006;4.720;2023-02-15T13:52:27;40.80;;;20.83;;
18435;SDS011;9346;52.006;4.720;2023-02-15T13:58:20;41.50;;;20.97;;
18435;SDS011;9346;52.006;4.720;2023-02-15T14:01:05;43.27;;;21.53;;
18435;SDS011;9346;52.006;4.720;2023-02-15T14:03:45;36.93;;;19.73;;
18435;SDS011;9346;52.006;4.720;2023-02-15T14:06:47;36.47;;;19.97;;
18435;SDS011;9346;52.006;4.720;2023-02-15T14:09:27;43.37;;;19.87;;
18435;SDS011;9346;52.006;4.720;2023-02-15T14:12:12;39.30;;;21.40;;
18435;SDS011;9346;52.006;4.720;2023-02-15T14:14:57;45.47;;;21.53;;
18435;SDS011;9346;52.006;4.720;2023-02-15T14:17:48;39.90;;;22.27;;
18435;SDS011;9346;52.006;4.720;2023-02-15T14:20:23;37.37;;;19.60;;
18435;SDS011;9346;52.006;4.720;2023-02-15T14:22:57;47.27;;;20.70;;
18435;SDS011;9346;52.006;4.720;2023-02-15T14:25:38;40.30;;;20.67;;
18435;SDS011;9346;52.006;4.720;2023-02-15T14:28:11;39.80;;;20.67;;
18435;SDS011;9346;52.006;4.720;2023-02-15T14:30:43;45.03;;;21.20;;
18435;SDS011;9346;52.006;4.720;2023-02-15T14:33:21;46.93;;;23.00;;
18435;SDS011;9346;52.006;4.720;2023-02-15T14:35:58;45.87;;;24.23;;
18435;SDS011;9346;52.006;4.720;2023-02-15T14:38:30;42.13;;;21.87;;
18435;SDS011;9346;52.006;4.720;2023-02-15T14:41:19;43.17;;;21.77;;
18435;SDS011;9346;52.006;4.720;2023-02-15T14:43:55;45.60;;;20.30;;
18435;SDS011;9346;52.006;4.720;2023-02-15T14:46:30;43.10;;;22.00;;
18435;SDS011;9346;52.006;4.720;2023-02-15T14:49:03;43.80;;;22.73;;
18435;SDS011;9346;52.006;4.720;2023-02-15T14:57:32;51.57;;;22.60;;
18435;SDS011;9346;52.006;4.720;2023-02-15T15:00:03;45.20;;;22.43;;
18435;SDS011;9346;52.006;4.720;2023-02-15T15:02:47;42.93;;;21.63;;
18435;SDS011;9346;52.006;4.720;2023-02-15T15:05:18;47.23;;;23.70;;
18435;SDS011;9346;52.006;4.720;2023-02-15T15:07:48;39.63;;;22.23;;
18435;SDS011;9346;52.006;4.720;2023-02-15T15:16:31;45.97;;;22.93;;
18435;SDS011;9346;52.006;4.720;2023-02-15T15:22:29;51.77;;;23.83;;
18435;SDS011;9346;52.006;4.720;2023-02-15T15:24:57;46.13;;;22.97;;
18435;SDS011;9346;52.006;4.720;2023-02-15T15:27:38;46.07;;;21.87;;
18435;SDS011;9346;52.006;4.720;2023-02-15T15:40:20;49.43;;;23.43;;
18435;SDS011;9346;52.006;4.720;2023-02-15T15:46:22;47.90;;;24.23;;
18435;SDS011;9346;52.006;4.720;2023-02-15T15:49:00;43.10;;;22.37;;
18435;SDS011;9346;52.006;4.720;2023-02-15T15:51:30;48.43;;;24.20;;